Country
Station

 

Weather  for  Linkoping/Malmen  -  Sweden    Sweden

  
11 °C (52 °F)
    
 
 

Current METAR for Linkoping/Malmen is :

ESCF 180950Z 30011KT 9999 FEW020 11/06 Q1012

 

This is a report for Linkoping/Malmen - Sweden.
 
The report was made 25 minutes ago, at 09:50 UTC .
The wind was blowing at a speed of 5.7 meters per second (12.7 miles per hour) from west/northwest (300°).
 
The temperature was 11 °C (52 °F), with a dew-point at 6 °C (43 °F).
The atmospheric pressure was 1012 hPa (29.88 inHg).
The relative humidity was 71.2%.
 
There were a few clouds at a height of 610 meters (2000 feet).
 
The overall visibility was greater than 10 kilometers (6.2 miles).
 

 
 
 
 

Country :   A   B   C   D   E   F   G   H   I   J   K   L   M   N   O   P   Q   R   S   T   U   V   W   Y   Z

 

Site Info  |  Disclaimer  |  Credits  |  Privacy
Contact us  |  Add to favorites
© 2013-2019 METARs - All rights reserved